createdAt,value
2018-11-06T00:00:24.194Z,1021.64
2018-11-06T00:01:24.223Z,1021.63
2018-11-06T00:02:24.252Z,1021.59
2018-11-06T00:03:24.280Z,1021.64
2018-11-06T00:04:24.310Z,1021.63
2018-11-06T00:05:24.340Z,1021.70
2018-11-06T00:06:24.369Z,1021.63
2018-11-06T00:07:24.398Z,1021.61
2018-11-06T00:08:24.426Z,1021.63
2018-11-06T00:09:24.532Z,1021.63
2018-11-06T00:10:24.530Z,1021.65
2018-11-06T00:11:24.514Z,1021.66
2018-11-06T00:12:24.542Z,1021.68
2018-11-06T00:13:24.570Z,1021.64
2018-11-06T00:14:24.606Z,1021.66
2018-11-06T00:15:24.628Z,1021.66
2018-11-06T00:16:24.656Z,1021.65
2018-11-06T00:17:24.687Z,1021.67
2018-11-06T00:18:24.716Z,1021.66
2018-11-06T00:19:24.746Z,1021.66
2018-11-06T00:20:24.773Z,1021.63
2018-11-06T00:21:24.805Z,1021.62
2018-11-06T00:22:24.833Z,1021.65
2018-11-06T00:23:24.863Z,1021.63
2018-11-06T00:24:24.890Z,1021.63
2018-11-06T00:25:24.926Z,1021.62
2018-11-06T00:26:24.949Z,1021.56
2018-11-06T00:27:24.980Z,1021.59
2018-11-06T00:28:25.005Z,1021.56
2018-11-06T00:29:25.038Z,1021.56
2018-11-06T00:30:25.063Z,1021.59
2018-11-06T00:31:25.093Z,1021.61
2018-11-06T00:32:25.125Z,1021.60
2018-11-06T00:33:25.150Z,1021.57
2018-11-06T00:34:25.185Z,1021.57
2018-11-06T00:35:25.210Z,1021.57
2018-11-06T00:36:25.262Z,1021.58
2018-11-06T00:37:25.273Z,1021.57
2018-11-06T00:38:25.298Z,1021.57
2018-11-06T00:39:25.326Z,1021.53
2018-11-06T00:40:25.355Z,1021.57
2018-11-06T00:41:25.382Z,1021.57
2018-11-06T00:42:25.415Z,1021.59
2018-11-06T00:43:25.444Z,1021.57
2018-11-06T00:44:25.470Z,1021.61
2018-11-06T00:45:25.501Z,1021.55
2018-11-06T00:46:25.529Z,1021.57
2018-11-06T00:47:25.560Z,1021.57
2018-11-06T00:48:25.588Z,1021.57
2018-11-06T00:49:25.618Z,1021.55
2018-11-06T00:50:25.649Z,1021.54
2018-11-06T00:51:25.675Z,1021.55
2018-11-06T00:52:25.703Z,1021.55
2018-11-06T00:53:25.745Z,1021.53
2018-11-06T00:54:25.765Z,1021.50
2018-11-06T00:55:25.792Z,1021.47
2018-11-06T00:56:25.821Z,1021.53
2018-11-06T00:57:25.850Z,1021.46
2018-11-06T00:58:25.880Z,1021.50
2018-11-06T00:59:25.908Z,1021.46
2018-11-06T01:00:25.936Z,1021.48
2018-11-06T01:01:25.968Z,1021.46
2018-11-06T01:02:25.995Z,1021.47
2018-11-06T01:03:26.029Z,1021.48
2018-11-06T01:04:26.054Z,1021.47
2018-11-06T01:05:26.082Z,1021.43
2018-11-06T01:06:26.112Z,1021.42
2018-11-06T01:07:26.142Z,1021.43
2018-11-06T01:08:26.169Z,1021.40
2018-11-06T01:09:26.204Z,1021.41
2018-11-06T01:10:26.231Z,1021.42
2018-11-06T01:11:26.258Z,1021.41
2018-11-06T01:12:26.286Z,1021.43
2018-11-06T01:13:26.316Z,1021.46
2018-11-06T01:14:26.346Z,1021.42
2018-11-06T01:15:26.375Z,1021.41
2018-11-06T01:16:26.402Z,1021.37
2018-11-06T01:17:26.437Z,1021.38
2018-11-06T01:18:26.464Z,1021.41
2018-11-06T01:19:26.492Z,1021.40
2018-11-06T01:20:26.524Z,1021.38
2018-11-06T01:21:26.550Z,1021.35
2018-11-06T01:22:26.579Z,1021.33
2018-11-06T01:23:26.607Z,1021.35
2018-11-06T01:24:26.640Z,1021.39
2018-11-06T01:25:26.665Z,1021.39
2018-11-06T01:26:26.696Z,1021.43
2018-11-06T01:27:26.727Z,1021.39
2018-11-06T01:28:26.761Z,1021.40
2018-11-06T01:29:26.782Z,1021.36
2018-11-06T01:30:26.815Z,1021.34
2018-11-06T01:31:26.843Z,1021.32
2018-11-06T01:32:26.871Z,1021.34
2018-11-06T01:33:26.901Z,1021.33
2018-11-06T01:34:26.929Z,1021.30
2018-11-06T01:35:26.959Z,1021.31
2018-11-06T01:36:26.987Z,1021.32
2018-11-06T01:37:27.017Z,1021.31
2018-11-06T01:38:27.050Z,1021.30
2018-11-06T01:39:27.075Z,1021.25
2018-11-06T01:40:27.108Z,1021.26
2018-11-06T01:41:27.134Z,1021.24
2018-11-06T01:42:27.164Z,1021.26
2018-11-06T01:43:27.195Z,1021.22
2018-11-06T01:44:27.224Z,1021.22
2018-11-06T01:45:27.250Z,1021.22
2018-11-06T01:46:27.281Z,1021.23
2018-11-06T01:47:27.312Z,1021.20
2018-11-06T01:48:27.339Z,1021.19
2018-11-06T01:49:27.370Z,1021.19
2018-11-06T01:50:27.399Z,1021.16
2018-11-06T01:51:27.428Z,1021.16
2018-11-06T01:52:27.456Z,1021.18
2018-11-06T01:53:27.486Z,1021.20
2018-11-06T01:54:27.516Z,1021.20
2018-11-06T01:55:27.544Z,1021.19
2018-11-06T01:56:27.574Z,1021.17
2018-11-06T01:57:27.603Z,1021.20
2018-11-06T01:58:27.637Z,1021.17
2018-11-06T01:59:27.661Z,1021.14
2018-11-06T02:00:27.689Z,1021.20
2018-11-06T02:01:27.721Z,1021.18
2018-11-06T02:02:27.750Z,1021.19
2018-11-06T02:03:27.779Z,1021.21
2018-11-06T02:04:27.808Z,1021.16
2018-11-06T02:05:27.837Z,1021.17
2018-11-06T02:06:27.869Z,1021.16
2018-11-06T02:07:27.895Z,1021.18
2018-11-06T02:08:27.925Z,1021.19
2018-11-06T02:09:27.953Z,1021.19
2018-11-06T02:10:27.987Z,1021.18
2018-11-06T02:11:28.014Z,1021.11
2018-11-06T02:12:28.042Z,1021.13
2018-11-06T02:13:28.072Z,1021.10
2018-11-06T02:14:28.110Z,1021.13
2018-11-06T02:15:28.129Z,1021.08
2018-11-06T02:16:28.160Z,1021.10
2018-11-06T02:17:28.188Z,1021.12
2018-11-06T02:18:28.220Z,1021.15
2018-11-06T02:19:28.248Z,1021.15
2018-11-06T02:20:28.279Z,1021.13
2018-11-06T02:21:28.306Z,1021.17
2018-11-06T02:22:28.337Z,1021.15
2018-11-06T02:23:28.370Z,1021.13
2018-11-06T02:24:28.394Z,1021.11
2018-11-06T02:25:28.422Z,1021.12
2018-11-06T02:26:28.452Z,1021.11
2018-11-06T02:27:28.488Z,1021.10
2018-11-06T02:28:28.511Z,1021.11
2018-11-06T02:29:28.540Z,1021.10
2018-11-06T02:30:28.569Z,1021.05
2018-11-06T02:31:28.603Z,1021.08
2018-11-06T02:32:28.719Z,1021.08
2018-11-06T02:33:28.663Z,1021.10
2018-11-06T02:34:28.687Z,1021.08
2018-11-06T02:35:28.717Z,1021.07
2018-11-06T02:36:28.746Z,1021.10
2018-11-06T02:37:28.783Z,1021.09
2018-11-06T02:38:28.806Z,1021.07
2018-11-06T02:39:28.834Z,1021.11
2018-11-06T02:40:28.864Z,1021.09
2018-11-06T02:41:28.892Z,1021.08
2018-11-06T02:42:28.921Z,1021.05
2018-11-06T02:43:28.949Z,1021.06
2018-11-06T02:44:28.979Z,1021.09
2018-11-06T02:45:29.008Z,1021.05
2018-11-06T02:46:29.038Z,1021.04
2018-11-06T02:47:29.074Z,1021.02
2018-11-06T02:48:29.098Z,1021.01
2018-11-06T02:49:29.125Z,1021.01
2018-11-06T02:50:29.161Z,1021.00
2018-11-06T02:51:29.186Z,1021.03
2018-11-06T02:52:29.216Z,1020.99
2018-11-06T02:53:29.252Z,1020.96
2018-11-06T02:54:29.271Z,1020.95
2018-11-06T02:55:29.301Z,1020.98
2018-11-06T02:56:29.330Z,1020.97
2018-11-06T02:57:29.359Z,1020.93
2018-11-06T02:58:29.389Z,1020.94
2018-11-06T02:59:29.421Z,1020.92
2018-11-06T03:00:29.449Z,1020.94
2018-11-06T03:01:29.477Z,1020.93
2018-11-06T03:02:29.506Z,1020.93
2018-11-06T03:03:29.536Z,1020.92
2018-11-06T03:04:29.568Z,1020.91
2018-11-06T03:05:29.595Z,1020.93
2018-11-06T03:06:29.623Z,1020.90
2018-11-06T03:07:29.653Z,1020.86
2018-11-06T03:08:29.681Z,1020.90
2018-11-06T03:09:29.717Z,1020.87
2018-11-06T03:10:29.831Z,1020.87
2018-11-06T03:11:29.771Z,1020.92
2018-11-06T03:12:29.803Z,1020.89
2018-11-06T03:13:29.828Z,1020.90
2018-11-06T03:14:29.858Z,1020.87
2018-11-06T03:15:29.888Z,1020.87
2018-11-06T03:16:29.915Z,1020.90
2018-11-06T03:17:29.944Z,1020.89
2018-11-06T03:18:29.974Z,1020.86
2018-11-06T03:19:30.007Z,1020.88
2018-11-06T03:20:30.034Z,1020.93
2018-11-06T03:21:30.063Z,1020.92
2018-11-06T03:22:30.092Z,1020.93
2018-11-06T03:23:30.132Z,1020.94
2018-11-06T03:24:30.152Z,1020.93
2018-11-06T03:25:30.181Z,1020.94
2018-11-06T03:26:30.212Z,1020.95
2018-11-06T03:27:30.240Z,1020.98
2018-11-06T03:28:30.271Z,1020.96
2018-11-06T03:29:30.300Z,1020.94
2018-11-06T03:30:30.332Z,1020.98
2018-11-06T03:31:30.357Z,1020.96
2018-11-06T03:32:30.388Z,1020.94
2018-11-06T03:33:30.416Z,1020.94
2018-11-06T03:34:30.445Z,1020.95
2018-11-06T03:35:30.475Z,1020.95
2018-11-06T03:36:30.505Z,1020.97
2018-11-06T03:37:30.535Z,1020.95
2018-11-06T03:38:30.564Z,1020.96
2018-11-06T03:39:30.591Z,1020.94
2018-11-06T03:40:30.632Z,1020.90
2018-11-06T03:41:30.654Z,1020.91
2018-11-06T03:42:30.678Z,1020.90
2018-11-06T03:43:30.709Z,1020.92
2018-11-06T03:44:30.740Z,1020.91
2018-11-06T03:45:30.769Z,1020.89
2018-11-06T03:46:30.800Z,1020.84
2018-11-06T03:47:30.829Z,1020.84
2018-11-06T03:48:30.856Z,1020.85
2018-11-06T03:49:30.885Z,1020.82
2018-11-06T03:50:30.915Z,1020.82
2018-11-06T03:51:30.947Z,1020.86
2018-11-06T03:52:30.974Z,1020.84
2018-11-06T03:53:31.003Z,1020.85
2018-11-06T03:54:31.041Z,1020.81
2018-11-06T03:55:31.066Z,1020.85
2018-11-06T03:56:31.089Z,1020.83
2018-11-06T03:57:31.120Z,1020.82
2018-11-06T03:58:31.150Z,1020.80
2018-11-06T03:59:31.180Z,1020.84
2018-11-06T04:00:31.214Z,1020.84
2018-11-06T04:01:31.238Z,1020.82
2018-11-06T04:02:31.269Z,1020.82
2018-11-06T04:03:31.302Z,1020.85
2018-11-06T04:04:31.328Z,1020.84
2018-11-06T04:05:31.355Z,1020.87
2018-11-06T04:06:31.384Z,1020.87
2018-11-06T04:07:31.417Z,1020.82
2018-11-06T04:08:31.442Z,1020.88
2018-11-06T04:09:31.472Z,1020.87
2018-11-06T04:10:31.501Z,1020.84
2018-11-06T04:11:31.531Z,1020.84
2018-11-06T04:12:31.559Z,1020.85
2018-11-06T04:13:31.591Z,1020.84
2018-11-06T04:14:31.619Z,1020.80
2018-11-06T04:15:31.652Z,1020.83
2018-11-06T04:16:31.678Z,1020.82
2018-11-06T04:17:31.706Z,1020.83
2018-11-06T04:18:31.735Z,1020.80
2018-11-06T04:19:31.765Z,1020.80
2018-11-06T04:20:31.793Z,1020.79
2018-11-06T04:21:31.827Z,1020.82
2018-11-06T04:22:31.853Z,1020.77
2018-11-06T04:23:31.882Z,1020.74
2018-11-06T04:24:31.913Z,1020.74
2018-11-06T04:25:31.942Z,1020.75
2018-11-06T04:26:31.970Z,1020.76
2018-11-06T04:27:31.999Z,1020.70
2018-11-06T04:28:32.026Z,1020.68
2018-11-06T04:29:32.057Z,1020.68
2018-11-06T04:30:32.090Z,1020.67
2018-11-06T04:31:32.122Z,1020.72
2018-11-06T04:32:32.144Z,1020.71
2018-11-06T04:33:32.175Z,1020.70
2018-11-06T04:34:32.205Z,1020.68
2018-11-06T04:35:32.233Z,1020.69
2018-11-06T04:36:32.263Z,1020.68
2018-11-06T04:37:32.297Z,1020.69
2018-11-06T04:38:32.320Z,1020.65
2018-11-06T04:39:32.350Z,1020.68
2018-11-06T04:40:32.377Z,1020.65
2018-11-06T04:41:32.407Z,1020.66
2018-11-06T04:42:32.436Z,1020.63
2018-11-06T04:43:32.468Z,1020.61
2018-11-06T04:44:32.495Z,1020.64
2018-11-06T04:45:32.525Z,1020.64
2018-11-06T04:46:32.554Z,1020.62
2018-11-06T04:47:32.582Z,1020.62
2018-11-06T04:48:32.617Z,1020.60
2018-11-06T04:49:32.641Z,1020.60
2018-11-06T04:50:32.675Z,1020.62
2018-11-06T04:51:32.701Z,1020.61
2018-11-06T04:52:32.728Z,1020.62
2018-11-06T04:53:32.758Z,1020.63
2018-11-06T04:54:32.788Z,1020.65
2018-11-06T04:55:32.817Z,1020.64
2018-11-06T04:56:32.846Z,1020.64
2018-11-06T04:57:32.877Z,1020.65
2018-11-06T04:58:32.909Z,1020.64
2018-11-06T04:59:32.935Z,1020.65
2018-11-06T05:00:32.962Z,1020.65
2018-11-06T05:01:32.993Z,1020.65
2018-11-06T05:02:33.023Z,1020.64
2018-11-06T05:03:33.054Z,1020.63
2018-11-06T05:04:33.081Z,1020.65
2018-11-06T05:05:33.114Z,1020.66
2018-11-06T05:06:33.143Z,1020.63
2018-11-06T05:07:33.168Z,1020.65
2018-11-06T05:08:33.196Z,1020.68
2018-11-06T05:09:33.227Z,1020.67
2018-11-06T05:10:33.259Z,1020.69
2018-11-06T05:11:33.288Z,1020.62
2018-11-06T05:12:33.315Z,1020.67
2018-11-06T05:13:33.347Z,1020.68
2018-11-06T05:14:33.374Z,1020.68
2018-11-06T05:15:33.404Z,1020.63
2018-11-06T05:16:33.434Z,1020.69
2018-11-06T05:17:33.462Z,1020.67
2018-11-06T05:18:33.491Z,1020.71
2018-11-06T05:19:33.521Z,1020.69
2018-11-06T05:20:33.552Z,1020.63
2018-11-06T05:21:33.579Z,1020.67
2018-11-06T05:22:33.609Z,1020.67
2018-11-06T05:23:33.639Z,1020.68
2018-11-06T05:24:33.665Z,1020.67
2018-11-06T05:25:33.740Z,1020.68
2018-11-06T05:26:33.726Z,1020.64
2018-11-06T05:27:33.813Z,1020.63
2018-11-06T05:28:33.787Z,1020.65
2018-11-06T05:29:33.816Z,1020.60
2018-11-06T05:30:33.849Z,1020.61
2018-11-06T05:31:33.873Z,1020.60
2018-11-06T05:32:33.905Z,1020.63
2018-11-06T05:33:33.931Z,1020.63
2018-11-06T05:34:33.978Z,1020.61
2018-11-06T05:35:33.990Z,1020.64
2018-11-06T05:36:34.017Z,1020.68
2018-11-06T05:37:34.047Z,1020.71
2018-11-06T05:38:34.078Z,1020.70
2018-11-06T05:39:34.210Z,1020.70
2018-11-06T05:40:34.138Z,1020.69
2018-11-06T05:41:34.164Z,1020.67
2018-11-06T05:42:34.197Z,1020.69
2018-11-06T05:43:34.223Z,1020.68
2018-11-06T05:44:34.255Z,1020.66
2018-11-06T05:45:34.318Z,1020.68
2018-11-06T05:46:34.312Z,1020.68
2018-11-06T05:47:34.342Z,1020.70
2018-11-06T05:48:34.370Z,1020.70
2018-11-06T05:49:34.398Z,1020.67
2018-11-06T05:50:34.429Z,1020.70
2018-11-06T05:51:34.460Z,1020.68
2018-11-06T05:52:34.489Z,1020.73
2018-11-06T05:53:34.518Z,1020.68
2018-11-06T05:54:34.546Z,1020.70
2018-11-06T05:55:34.579Z,1020.70
2018-11-06T05:56:34.606Z,1020.63
2018-11-06T05:57:34.636Z,1020.71
2018-11-06T05:58:34.664Z,1020.72
2018-11-06T05:59:34.695Z,1020.67
2018-11-06T06:00:34.756Z,1020.68
2018-11-06T06:01:34.753Z,1020.64
2018-11-06T06:02:34.780Z,1020.67
2018-11-06T06:03:34.810Z,1020.72
2018-11-06T06:04:34.839Z,1020.67
2018-11-06T06:05:34.870Z,1020.66
2018-11-06T06:06:34.897Z,1020.68
2018-11-06T06:07:34.927Z,1020.68
2018-11-06T06:08:34.955Z,1020.69
2018-11-06T06:09:34.987Z,1020.65
2018-11-06T06:10:35.015Z,1020.68
2018-11-06T06:11:35.045Z,1020.69
2018-11-06T06:12:35.074Z,1020.69
2018-11-06T06:13:35.105Z,1020.66
2018-11-06T06:14:35.131Z,1020.69
2018-11-06T06:15:35.162Z,1020.71
2018-11-06T06:16:35.254Z,1020.69
2018-11-06T06:17:35.220Z,1020.71
2018-11-06T06:18:35.250Z,1020.69
2018-11-06T06:19:35.281Z,1020.67
2018-11-06T06:20:35.309Z,1020.68
2018-11-06T06:21:35.337Z,1020.70
2018-11-06T06:22:35.444Z,1020.71
2018-11-06T06:23:35.397Z,1020.77
2018-11-06T06:24:35.429Z,1020.71
2018-11-06T06:25:35.477Z,1020.75
2018-11-06T06:26:35.485Z,1020.73
2018-11-06T06:27:35.515Z,1020.76
2018-11-06T06:28:35.629Z,1020.70
2018-11-06T06:29:35.573Z,1020.72
2018-11-06T06:30:35.606Z,1020.76
2018-11-06T06:31:35.633Z,1020.76
2018-11-06T06:32:35.662Z,1020.75
2018-11-06T06:33:35.694Z,1020.73
2018-11-06T06:34:35.807Z,1020.74
2018-11-06T06:35:35.751Z,1020.77
2018-11-06T06:36:35.780Z,1020.77
2018-11-06T06:37:35.812Z,1020.73
2018-11-06T06:38:35.919Z,1020.77
2018-11-06T06:39:35.869Z,1020.76
2018-11-06T06:40:35.897Z,1020.74
2018-11-06T06:41:35.931Z,1020.76
2018-11-06T06:42:35.960Z,1020.76
2018-11-06T06:43:35.988Z,1020.78
2018-11-06T06:44:36.021Z,1020.72
2018-11-06T06:45:36.051Z,1020.74
2018-11-06T06:46:36.077Z,1020.75
2018-11-06T06:47:36.110Z,1020.73
2018-11-06T06:48:36.135Z,1020.72
2018-11-06T06:49:36.172Z,1020.75
2018-11-06T06:50:36.193Z,1020.72
2018-11-06T06:51:36.225Z,1020.75
2018-11-06T06:52:36.256Z,1020.70
2018-11-06T06:53:36.282Z,1020.71
2018-11-06T06:54:36.552Z,1020.72
2018-11-06T06:55:36.348Z,1020.73
2018-11-06T06:56:36.374Z,1020.70
2018-11-06T06:57:36.403Z,1020.69
2018-11-06T06:58:36.432Z,1020.69
2018-11-06T06:59:36.461Z,1020.67
2018-11-06T07:00:36.529Z,1020.65
2018-11-06T07:01:36.521Z,1020.64
2018-11-06T07:02:36.597Z,1020.61
2018-11-06T07:03:36.584Z,1020.67
2018-11-06T07:04:36.609Z,1020.66
2018-11-06T07:05:36.643Z,1020.69
2018-11-06T07:06:36.669Z,1020.68
2018-11-06T07:07:36.702Z,1020.71
2018-11-06T07:08:36.728Z,1020.67
2018-11-06T07:09:36.758Z,1020.72
2018-11-06T07:10:36.791Z,1020.71
2018-11-06T07:11:36.819Z,1020.75
2018-11-06T07:12:36.897Z,1020.75
2018-11-06T07:13:36.878Z,1020.78
2018-11-06T07:14:36.908Z,1020.74
2018-11-06T07:15:36.939Z,1020.77
2018-11-06T07:16:36.967Z,1020.74
2018-11-06T07:17:36.996Z,1020.74
2018-11-06T07:18:37.095Z,1020.71
2018-11-06T07:19:37.063Z,1020.77
2018-11-06T07:20:37.091Z,1020.76
2018-11-06T07:21:37.120Z,1020.78
2018-11-06T07:22:37.146Z,1020.77
2018-11-06T07:23:37.180Z,1020.76
2018-11-06T07:24:37.205Z,1020.76
2018-11-06T07:25:37.238Z,1020.80
2018-11-06T07:26:37.266Z,1020.76
2018-11-06T07:27:37.297Z,1020.75
2018-11-06T07:28:37.395Z,1020.76
2018-11-06T07:29:37.358Z,1020.76
2018-11-06T07:30:37.386Z,1020.73
2018-11-06T07:31:37.417Z,1020.78
2018-11-06T07:32:37.445Z,1020.75
2018-11-06T07:33:37.480Z,1020.76
2018-11-06T07:34:37.627Z,1020.79
2018-11-06T07:35:37.822Z,1020.75
2018-11-06T07:36:37.567Z,1020.79
2018-11-06T07:37:37.601Z,1020.76
2018-11-06T07:38:37.627Z,1020.70
2018-11-06T07:39:37.656Z,1020.79
2018-11-06T07:40:37.739Z,1020.77
2018-11-06T07:41:37.716Z,1020.75
2018-11-06T07:42:37.745Z,1020.73
2018-11-06T07:43:37.774Z,1020.74
2018-11-06T07:44:37.808Z,1020.76
2018-11-06T07:45:37.840Z,1020.76
2018-11-06T07:46:37.868Z,1020.69
2018-11-06T07:47:37.898Z,1020.69
2018-11-06T07:48:37.924Z,1020.71
2018-11-06T07:49:37.956Z,1020.68
2018-11-06T07:50:37.989Z,1020.69
2018-11-06T07:51:38.016Z,1020.64
2018-11-06T07:52:38.046Z,1020.70
2018-11-06T07:53:38.076Z,1020.67
2018-11-06T07:54:38.105Z,1020.70
2018-11-06T07:55:38.171Z,1020.66
2018-11-06T07:56:38.166Z,1020.72
2018-11-06T07:57:38.200Z,1020.69
2018-11-06T07:58:38.225Z,1020.72
2018-11-06T07:59:38.256Z,1020.72
2018-11-06T08:00:38.289Z,1020.74
2018-11-06T08:01:38.316Z,1020.76
2018-11-06T08:02:38.346Z,1020.67
2018-11-06T08:03:38.378Z,1020.67
2018-11-06T08:04:38.408Z,1020.68
2018-11-06T08:05:38.440Z,1020.65
2018-11-06T08:06:38.470Z,1020.65
2018-11-06T08:07:38.497Z,1020.68
2018-11-06T08:08:38.528Z,1020.67
2018-11-06T08:09:38.652Z,1020.66
2018-11-06T08:10:38.591Z,1020.69
2018-11-06T08:11:38.626Z,1020.68
2018-11-06T08:12:38.651Z,1020.65
2018-11-06T08:13:38.679Z,1020.67
2018-11-06T08:14:38.793Z,1020.64
2018-11-06T08:15:38.739Z,1020.68
2018-11-06T08:16:38.770Z,1020.66
2018-11-06T08:17:38.800Z,1020.64
2018-11-06T08:18:38.835Z,1020.63
2018-11-06T08:19:38.863Z,1020.62
2018-11-06T08:20:38.982Z,1020.62
2018-11-06T08:21:38.926Z,1020.64
2018-11-06T08:22:38.958Z,1020.62
2018-11-06T08:23:39.020Z,1020.65
2018-11-06T08:24:39.012Z,1020.67
2018-11-06T08:25:39.043Z,1020.64
2018-11-06T08:26:39.073Z,1020.70
2018-11-06T08:27:39.109Z,1020.61
2018-11-06T08:28:39.134Z,1020.62
2018-11-06T08:29:39.169Z,1020.61
2018-11-06T08:30:39.247Z,1020.66
2018-11-06T08:31:39.870Z,1020.61
2018-11-06T08:32:39.682Z,1020.60
2018-11-06T08:33:39.285Z,1020.65
2018-11-06T08:34:39.316Z,1020.66
2018-11-06T08:35:39.348Z,1020.69
2018-11-06T08:36:39.477Z,1020.65
2018-11-06T08:37:39.406Z,1020.67
2018-11-06T08:38:39.438Z,1020.61
2018-11-06T08:39:39.468Z,1020.60
2018-11-06T08:40:39.498Z,1020.61
2018-11-06T08:41:39.531Z,1020.63
2018-11-06T08:42:39.560Z,1020.60
2018-11-06T08:43:39.589Z,1020.69
2018-11-06T08:44:39.619Z,1020.65
2018-11-06T08:45:39.651Z,1020.58
2018-11-06T08:46:39.682Z,1020.57
2018-11-06T08:47:39.710Z,1020.61
2018-11-06T08:48:39.740Z,1020.64
2018-11-06T08:49:39.775Z,1020.55
2018-11-06T08:50:39.804Z,1020.53
2018-11-06T08:51:39.836Z,1020.53
2018-11-06T08:52:39.861Z,1020.54
2018-11-06T08:53:39.899Z,1020.55
2018-11-06T08:54:39.973Z,1020.53
2018-11-06T08:55:39.957Z,1020.53
2018-11-06T08:56:39.985Z,1020.51
2018-11-06T08:57:40.013Z,1020.57
2018-11-06T08:58:40.047Z,1020.53
2018-11-06T08:59:40.077Z,1020.51
2018-11-06T09:00:40.102Z,1020.55
2018-11-06T09:01:40.137Z,1020.48
2018-11-06T09:02:40.221Z,1020.50
2018-11-06T09:03:40.194Z,1020.51
2018-11-06T09:04:40.227Z,1020.51
2018-11-06T09:05:40.256Z,1020.50
2018-11-06T09:06:40.285Z,1020.49
2018-11-06T09:07:40.316Z,1020.47
2018-11-06T09:08:40.377Z,1020.48
2018-11-06T09:09:40.378Z,1020.49
2018-11-06T09:10:40.413Z,1020.49
2018-11-06T09:11:40.436Z,1020.53
2018-11-06T09:12:40.467Z,1020.52
2018-11-06T09:13:40.502Z,1020.48
2018-11-06T09:14:40.530Z,1020.50
2018-11-06T09:15:40.558Z,1020.48
2018-11-06T09:16:40.588Z,1020.51
2018-11-06T09:17:40.618Z,1020.42
2018-11-06T09:18:40.646Z,1020.43
2018-11-06T09:19:40.681Z,1020.43
2018-11-06T09:20:40.707Z,1020.39
2018-11-06T09:21:40.740Z,1020.43
2018-11-06T09:22:40.772Z,1020.41
2018-11-06T09:23:40.799Z,1020.42
2018-11-06T09:24:40.829Z,1020.45
2018-11-06T09:25:40.862Z,1020.42
2018-11-06T09:26:40.893Z,1020.42
2018-11-06T09:27:40.921Z,1020.48
2018-11-06T09:28:40.951Z,1020.53
2018-11-06T09:29:40.983Z,1020.52
2018-11-06T09:30:41.040Z,1020.50
2018-11-06T09:31:41.044Z,1020.51
2018-11-06T09:32:41.073Z,1020.55
2018-11-06T09:33:41.101Z,1020.55
2018-11-06T09:34:41.131Z,1020.54
2018-11-06T09:35:41.169Z,1020.55
2018-11-06T09:36:41.192Z,1020.54
2018-11-06T09:37:41.227Z,1020.51
2018-11-06T09:38:41.253Z,1020.55
2018-11-06T09:39:41.284Z,1020.59
2018-11-06T09:40:41.315Z,1020.56
2018-11-06T09:41:41.348Z,1020.56
2018-11-06T09:42:41.374Z,1020.55
2018-11-06T09:43:41.407Z,1020.54
2018-11-06T09:44:41.434Z,1020.60
2018-11-06T09:45:41.466Z,1020.50
2018-11-06T09:46:41.500Z,1020.58
2018-11-06T09:47:41.527Z,1020.54
2018-11-06T09:48:41.557Z,1020.48
2018-11-06T09:49:41.588Z,1020.49
2018-11-06T09:50:41.621Z,1020.48
2018-11-06T09:51:41.648Z,1020.50
2018-11-06T09:52:41.677Z,1020.51
2018-11-06T09:53:41.709Z,1020.47
2018-11-06T09:54:41.744Z,1020.46
2018-11-06T09:55:41.774Z,1020.43
2018-11-06T09:56:41.801Z,1020.41
2018-11-06T09:57:41.835Z,1020.42
2018-11-06T09:58:41.862Z,1020.38
2018-11-06T09:59:41.895Z,1020.35
2018-11-06T10:00:41.923Z,1020.45
2018-11-06T10:01:41.954Z,1020.44
2018-11-06T10:02:41.984Z,1020.46
2018-11-06T10:03:42.021Z,1020.43
2018-11-06T10:04:42.045Z,1020.45
2018-11-06T10:05:42.076Z,1020.46
2018-11-06T10:06:42.227Z,1020.47
2018-11-06T10:07:42.180Z,1020.49
2018-11-06T10:08:42.168Z,1020.46
2018-11-06T10:09:42.201Z,1020.48
2018-11-06T10:10:42.232Z,1020.46
2018-11-06T10:11:42.262Z,1020.43
2018-11-06T10:12:42.295Z,1020.46
2018-11-06T10:13:42.323Z,1020.47
2018-11-06T10:14:42.354Z,1020.48
2018-11-06T10:15:42.433Z,1020.44
2018-11-06T10:16:42.419Z,1020.53
2018-11-06T10:17:42.446Z,1020.45
2018-11-06T10:18:42.475Z,1020.44
2018-11-06T10:19:42.509Z,1020.47
2018-11-06T10:20:42.537Z,1020.40
2018-11-06T10:21:42.567Z,1020.42
2018-11-06T10:22:42.597Z,1020.45
2018-11-06T10:23:42.630Z,1020.44
2018-11-06T10:24:42.658Z,1020.41
2018-11-06T10:25:42.690Z,1020.41
2018-11-06T10:26:42.721Z,1020.46
2018-11-06T10:27:42.760Z,1020.44
2018-11-06T10:28:42.787Z,1020.41
2018-11-06T10:29:42.815Z,1020.39
2018-11-06T10:30:42.881Z,1020.40
2018-11-06T10:31:42.903Z,1020.37
2018-11-06T10:32:42.914Z,1020.40
2018-11-06T10:33:42.939Z,1020.39
2018-11-06T10:34:42.968Z,1020.37
2018-11-06T10:35:42.999Z,1020.39
2018-11-06T10:36:43.032Z,1020.36
2018-11-06T10:37:43.062Z,1020.31
2018-11-06T10:38:43.094Z,1020.33
2018-11-06T10:39:43.126Z,1020.29
2018-11-06T10:40:43.155Z,1020.30
2018-11-06T10:41:43.192Z,1020.30
2018-11-06T10:42:43.218Z,1020.28
2018-11-06T10:43:43.266Z,1020.33
2018-11-06T10:44:43.281Z,1020.28
2018-11-06T10:45:43.313Z,1020.34
2018-11-06T10:46:43.344Z,1020.29
2018-11-06T10:47:43.380Z,1020.33
2018-11-06T10:48:43.405Z,1020.35
2018-11-06T10:49:43.437Z,1020.33
2018-11-06T10:50:43.470Z,1020.34
2018-11-06T10:51:43.573Z,1020.33
2018-11-06T10:52:43.532Z,1020.28
2018-11-06T10:53:43.560Z,1020.36
2018-11-06T10:54:43.593Z,1020.39
2018-11-06T10:55:43.625Z,1020.31
2018-11-06T10:56:43.654Z,1020.33
2018-11-06T10:57:43.684Z,1020.34
2018-11-06T10:58:43.717Z,1020.37
2018-11-06T10:59:43.750Z,1020.34
2018-11-06T11:00:43.776Z,1020.39
2018-11-06T11:01:43.808Z,1020.39
2018-11-06T11:02:43.842Z,1020.40
2018-11-06T11:03:43.873Z,1020.40
2018-11-06T11:04:43.901Z,1020.38
2018-11-06T11:05:43.931Z,1020.37
2018-11-06T11:06:43.967Z,1020.42
2018-11-06T11:07:43.998Z,1020.41
2018-11-06T11:08:44.028Z,1020.40
2018-11-06T11:09:44.058Z,1020.47
2018-11-06T11:10:44.091Z,1020.45
2018-11-06T11:11:44.118Z,1020.50
2018-11-06T11:12:44.149Z,1020.46
2018-11-06T11:13:44.184Z,1020.45
2018-11-06T11:14:44.211Z,1020.49
2018-11-06T11:15:44.243Z,1020.47
2018-11-06T11:16:44.273Z,1020.46
2018-11-06T11:17:44.306Z,1020.51
2018-11-06T11:18:44.338Z,1020.48
2018-11-06T11:19:44.370Z,1020.46
2018-11-06T11:20:44.397Z,1020.42
2018-11-06T11:21:44.426Z,1020.44
2018-11-06T11:22:44.462Z,1020.38
2018-11-06T11:23:44.488Z,1020.44
2018-11-06T11:24:44.529Z,1020.42
2018-11-06T11:25:44.619Z,1020.39
2018-11-06T11:26:44.587Z,1020.41
2018-11-06T11:27:44.616Z,1020.42
2018-11-06T11:28:44.647Z,1020.45
2018-11-06T11:29:44.678Z,1020.41
2018-11-06T11:30:44.708Z,1020.41
2018-11-06T11:31:44.739Z,1020.35
2018-11-06T11:32:44.767Z,1020.32
2018-11-06T11:33:44.847Z,1020.28
2018-11-06T11:34:44.831Z,1020.37
2018-11-06T11:35:44.861Z,1020.36
2018-11-06T11:36:44.898Z,1020.32
2018-11-06T11:37:45.010Z,1020.32
2018-11-06T11:38:44.954Z,1020.36
2018-11-06T11:39:44.984Z,1020.34
2018-11-06T11:40:45.013Z,1020.36
2018-11-06T11:41:45.047Z,1020.39
2018-11-06T11:42:45.076Z,1020.41
2018-11-06T11:43:45.107Z,1020.43
2018-11-06T11:44:45.139Z,1020.44
2018-11-06T11:45:45.230Z,1020.37
2018-11-06T11:46:45.199Z,1020.46
2018-11-06T11:47:45.229Z,1020.38
2018-11-06T11:48:45.262Z,1020.39
2018-11-06T11:49:45.291Z,1020.41
2018-11-06T11:50:45.322Z,1020.45
2018-11-06T11:51:45.354Z,1020.40
2018-11-06T11:52:45.385Z,1020.38
2018-11-06T11:53:45.413Z,1020.38
2018-11-06T11:54:45.446Z,1020.42
2018-11-06T11:55:45.480Z,1020.37
2018-11-06T11:56:45.504Z,1020.35
2018-11-06T11:57:45.537Z,1020.38
2018-11-06T11:58:45.569Z,1020.37
2018-11-06T11:59:45.597Z,1020.37
2018-11-06T12:00:45.628Z,1020.31
2018-11-06T12:01:45.659Z,1020.36
2018-11-06T12:02:45.690Z,1020.41
2018-11-06T12:03:45.721Z,1020.33
2018-11-06T12:04:45.749Z,1020.32
2018-11-06T12:05:45.785Z,1020.35